Aérodrome :
LOGIN :

S'inscrire | Disclaimer

   EN    FR    IT 

 










Légende :    VFR   VFR Marginal   IFR   IFR Intensif   IFR Très Intensif
Visi : 
Plafond : 
>= 8 km
>= 3000ft
5 à 8 km
1000 à 3000 ft
1500m à 5 km
500 à 1000 ft
800 à 1500m
200 à 500 ft
< 800m
< 200 ft
Symboles :   Orages  Brouillard  Fortes neiges  Fortes précipitations  Vent > 20 kt
SIGMETs :   Divers  Orages  Givrage  Turbulence  Onde Orograph.  Cendres Volcan.







- Altitude de l'aérodrome : 291 ft
- Code IATA : ORY
- Voir les cartes d'approche


LFPO - Paris-Orly

DERNIER METAR :
  • 181900Z 17008KT CAVOK 07/02 Q1011 NOSIG

METARs EXPIRÉS :
  • 181830Z 16006KT CAVOK 07/03 Q1011 NOSIG
  • 181800Z 15006KT CAVOK 07/03 Q1011 NOSIG
  • 181730Z 15005KT CAVOK 07/03 Q1011 NOSIG
  • 181700Z 15006KT 120V190 CAVOK 07/03 Q1011 NOSIG
  • 181630Z 15004KT 110V180 CAVOK 07/03 Q1012 NOSIG

TAF TAF LFPO
Valide du 18 à 18h jusqu'au 20 à 00h UTC


181700Z 1818/1924 16010KT CAVOK
TEMPO 1822/1901 4000 RA BKN008
PROB30
TEMPO 1822/1901 20015G25KT
BECMG 1901/1902 BKN008
PROB30
TEMPO 1906/1924 SCT015TCU
BECMG 1909/1912 BKN016
PROB40
TEMPO 1912/1924 BKN013
ATIS : +33 1 49 75 65 80
Pas de NOTAMs connus pour ce terrain.



MET'MAP, la Météo Aéronautique d'un coup d'oeil ! - Copyright ORBIFLY Décembre 2007 - Disclaimer

ORBIFLY MET'MAP TEAM :

Programmation & Développement : Alexandra Zaïnal
Conception & Développement : Baudouin d'Aumeries
Co-Programmation & Développement : Marc-Olivier Méhu
Soutien technique & logistique : Manuel Goepfert

Contact : metmap@orbifly.com




SOURCES & CREDITS :

   NOAA